Time;durP1;ratioP1;P1;durP2;ratioP2;P2;SDS_P1;SDS_P2;PMS_P1;PMS_P2;Temp;Humidity;BMP_temperature;BMP_pressure;BME280_temperature;BME280_humidity;BME280_pressure;Samples;Min_cycle;Max_cycle;Signal;HPM_P1;HPM_P2
2022/11/29 00:01:26;;;;;;;33.15;18.60;;;11.50;99.90;;;;;;4969280;28;20042;-77
2022/11/29 00:03:53;;;;;;;30.95;18.77;;;11.50;99.90;;;;;;4967094;28;20522;-77
2022/11/29 00:06:23;;;;;;;30.95;18.55;;;11.50;99.90;;;;;;4970726;28;20527;-77
2022/11/29 00:08:50;;;;;;;28.98;18.23;;;11.50;99.90;;;;;;4966024;28;20471;-77
2022/11/29 00:14:00;;;;;;;29.80;17.85;;;11.50;99.90;;;;;;4968581;28;20057;-78
2022/11/29 00:16:27;;;;;;;30.40;18.58;;;11.50;99.90;;;;;;4961025;28;20042;-78
2022/11/29 00:18:54;;;;;;;28.77;17.50;;;11.50;99.90;;;;;;4966733;28;20049;-77
2022/11/29 00:21:22;;;;;;;28.35;18.15;;;11.50;99.90;;;;;;4968876;28;20574;-78
2022/11/29 00:23:49;;;;;;;30.17;17.38;;;11.50;99.90;;;;;;4970512;28;20056;-77
2022/11/29 00:26:16;;;;;;;25.88;16.20;;;11.50;99.90;;;;;;4969681;28;20047;-77
2022/11/29 00:28:43;;;;;;;28.35;17.67;;;11.50;99.90;;;;;;4968667;28;20058;-77
2022/11/29 00:31:14;;;;;;;30.05;17.45;;;11.50;99.90;;;;;;4968742;28;20043;-77
2022/11/29 00:33:41;;;;;;;27.83;17.55;;;11.50;99.90;;;;;;4960884;28;20047;-77
2022/11/29 00:36:08;;;;;;;25.38;16.73;;;11.50;99.90;;;;;;4966456;28;20043;-77
2022/11/29 00:38:37;;;;;;;24.38;16.10;;;11.50;99.90;;;;;;4972621;28;20109;-77
2022/11/29 00:41:04;;;;;;;26.00;16.85;;;11.50;99.90;;;;;;4960832;28;20510;-77
2022/11/29 00:43:31;;;;;;;25.75;16.45;;;11.40;99.90;;;;;;4967795;28;20502;-77
2022/11/29 00:45:58;;;;;;;25.52;15.85;;;11.50;99.90;;;;;;4964847;28;20450;-77
2022/11/29 00:48:25;;;;;;;28.58;16.63;;;11.50;99.90;;;;;;4957523;28;20047;-78
2022/11/29 00:50:52;;;;;;;25.85;15.75;;;11.50;99.90;;;;;;4958959;28;20047;-77
2022/11/29 00:53:19;;;;;;;30.83;17.65;;;11.50;99.90;;;;;;4974475;28;20046;-77
2022/11/29 00:55:49;;;;;;;26.05;16.48;;;11.50;99.90;;;;;;4987919;28;20079;-77
2022/11/29 00:58:16;;;;;;;27.13;17.30;;;11.50;99.90;;;;;;4978660;28;20050;-78
2022/11/29 01:00:43;;;;;;;30.25;17.65;;;11.50;99.90;;;;;;4971461;28;20563;-77
2022/11/29 01:03:10;;;;;;;30.25;18.65;;;11.50;99.90;;;;;;4971656;28;20163;-77
2022/11/29 01:05:37;;;;;;;27.92;17.52;;;11.50;99.90;;;;;;4967677;28;20049;-77
2022/11/29 01:08:05;;;;;;;27.75;17.95;;;11.50;99.90;;;;;;4968727;28;20126;-78
2022/11/29 01:10:32;;;;;;;31.50;18.02;;;11.50;99.90;;;;;;4960211;28;20038;-77
2022/11/29 01:13:00;;;;;;;32.17;19.23;;;11.50;99.90;;;;;;4976524;28;20055;-75
2022/11/29 01:15:28;;;;;;;33.00;18.52;;;11.50;99.90;;;;;;4971977;28;20050;-75
2022/11/29 01:17:55;;;;;;;31.48;18.60;;;11.50;99.90;;;;;;4971728;28;20038;-75
2022/11/29 01:20:22;;;;;;;31.58;18.85;;;11.50;99.90;;;;;;4970644;28;20053;-75
2022/11/29 01:22:49;;;;;;;31.05;19.05;;;11.40;99.90;;;;;;4969060;28;20058;-75
2022/11/29 01:25:18;;;;;;;35.22;19.15;;;11.50;99.90;;;;;;4966664;28;20046;-76
2022/11/29 01:27:45;;;;;;;32.50;19.05;;;11.50;99.90;;;;;;4973063;28;20180;-75
2022/11/29 01:30:14;;;;;;;36.03;20.38;;;11.50;99.90;;;;;;4978642;28;20046;-76
2022/11/29 01:32:41;;;;;;;35.35;20.30;;;11.50;99.90;;;;;;5013623;23;20050;-81
2022/11/29 01:35:09;;;;;;;35.85;20.95;;;11.50;99.90;;;;;;4995286;28;20437;-79
2022/11/29 01:37:36;;;;;;;35.20;20.52;;;11.50;99.90;;;;;;5007497;28;20492;-78
2022/11/29 01:40:04;;;;;;;36.15;19.75;;;11.50;99.90;;;;;;5009688;28;20046;-78
2022/11/29 01:42:31;;;;;;;41.75;21.20;;;11.50;99.90;;;;;;5008983;28;20046;-78
2022/11/29 01:45:10;;;;;;;39.72;20.48;;;11.50;99.90;;;;;;5012369;28;20088;-78
2022/11/29 01:47:43;;;;;;;37.47;20.05;;;11.50;99.90;;;;;;5021404;28;20052;-79
2022/11/29 01:50:10;;;;;;;36.45;20.30;;;11.60;99.90;;;;;;5010855;28;20046;-78
2022/11/29 01:52:38;;;;;;;40.85;20.60;;;11.60;99.90;;;;;;4992873;28;20056;-78
2022/11/29 01:55:07;;;;;;;38.75;20.25;;;11.60;99.90;;;;;;4983281;28;20449;-78
2022/11/29 01:57:35;;;;;;;45.80;21.33;;;11.60;99.90;;;;;;5009041;28;20050;-78
2022/11/29 02:00:07;;;;;;;45.75;22.52;;;11.60;99.90;;;;;;4999889;28;20313;-78
2022/11/29 02:02:43;;;;;;;53.08;24.50;;;11.60;99.90;;;;;;5010467;28;20057;-78
2022/11/29 02:05:12;;;;;;;49.03;23.98;;;11.60;99.90;;;;;;5007502;28;20524;-78
2022/11/29 02:07:40;;;;;;;53.40;24.77;;;11.60;99.90;;;;;;5010674;28;20041;-78
2022/11/29 02:10:08;;;;;;;53.88;25.42;;;11.60;99.90;;;;;;4991519;28;20046;-78
2022/11/29 02:12:43;;;;;;;57.88;24.65;;;11.60;99.90;;;;;;5008750;28;20045;-78
2022/11/29 02:15:28;;;;;;;57.55;25.70;;;11.60;99.90;;;;;;4991412;28;20046;-78
2022/11/29 02:18:04;;;;;;;55.40;25.60;;;11.60;99.90;;;;;;4999642;28;20054;-78
2022/11/29 02:21:00;;;;;;;79.40;30.17;;;11.60;99.90;;;;;;5009022;28;20045;-78
2022/11/29 02:24:03;;;;;;;66.03;27.77;;;11.60;99.90;;;;;;5000900;28;20383;-79
2022/11/29 02:26:59;;;;;;;68.35;28.42;;;11.60;99.90;;;;;;4970602;28;20143;-78
2022/11/29 02:29:48;;;;;;;66.75;28.20;;;11.60;99.90;;;;;;5000397;28;20041;-78
2022/11/29 02:33:06;;;;;;;71.20;28.77;;;11.60;99.90;;;;;;5003801;28;20133;-78
2022/11/29 02:36:05;;;;;;;73.55;27.85;;;11.60;99.90;;;;;;4982814;28;20057;-78
2022/11/29 02:38:45;;;;;;;65.30;26.52;;;11.60;99.90;;;;;;5014839;28;20506;-79
2022/11/29 02:41:22;;;;;;;74.20;28.00;;;11.60;99.90;;;;;;4979282;28;20042;-78
2022/11/29 02:44:01;;;;;;;78.88;27.85;;;11.60;99.90;;;;;;5002096;28;20050;-78
2022/11/29 02:46:43;;;;;;;66.93;27.10;;;11.60;99.90;;;;;;5008612;28;20120;-78
2022/11/29 02:49:15;;;;;;;77.90;27.67;;;11.70;99.90;;;;;;5000032;28;20041;-78
2022/11/29 02:51:46;;;;;;;70.53;27.60;;;11.70;99.90;;;;;;5016560;28;20047;-78
2022/11/29 02:54:19;;;;;;;72.82;27.00;;;11.70;99.90;;;;;;4998930;28;20473;-78
2022/11/29 02:56:51;;;;;;;73.75;28.50;;;11.70;99.90;;;;;;4990520;28;20050;-78
2022/11/29 02:59:32;;;;;;;77.97;28.63;;;11.60;99.90;;;;;;4990324;28;20039;-79
2022/11/29 03:02:01;;;;;;;;;;;11.70;99.90;;;;;;5007418;28;20080;-78
2022/11/29 03:04:32;;;;;;;66.65;26.45;;;11.60;99.90;;;;;;5009378;28;20012;-78
2022/11/29 03:07:05;;;;;;;67.88;26.73;;;11.70;99.90;;;;;;5015417;28;20046;-78
2022/11/29 03:09:39;;;;;;;75.97;26.58;;;11.60;99.90;;;;;;5023761;28;20167;-78
2022/11/29 03:12:16;;;;;;;83.93;27.67;;;11.70;99.90;;;;;;5005054;28;20573;-79
2022/11/29 03:14:54;;;;;;;73.20;26.83;;;11.60;99.90;;;;;;5007676;28;20121;-78
2022/11/29 03:17:32;;;;;;;89.18;28.30;;;11.60;99.90;;;;;;5005550;28;20095;-78
2022/11/29 03:20:06;;;;;;;89.38;27.48;;;11.60;99.90;;;;;;5005001;28;20134;-78
2022/11/29 03:22:43;;;;;;;79.70;25.73;;;11.60;99.90;;;;;;5006662;28;20045;-78
2022/11/29 03:25:13;;;;;;;85.57;26.30;;;11.60;99.90;;;;;;5004822;28;20124;-78
2022/11/29 03:27:43;;;;;;;67.95;24.40;;;11.60;99.90;;;;;;4989683;28;20046;-79
2022/11/29 03:30:13;;;;;;;73.70;24.95;;;11.70;99.90;;;;;;4993605;28;20069;-78
2022/11/29 03:32:46;;;;;;;63.15;22.73;;;11.70;99.90;;;;;;4990350;28;20049;-78
2022/11/29 03:35:17;;;;;;;65.90;24.02;;;11.60;99.90;;;;;;5003848;28;20132;-78
2022/11/29 03:37:51;;;;;;;66.63;24.92;;;11.70;99.90;;;;;;5006281;28;20124;-78
2022/11/29 03:40:21;;;;;;;75.32;27.05;;;11.60;99.90;;;;;;5007015;28;20049;-78
2022/11/29 03:42:52;;;;;;;67.80;24.87;;;11.60;99.90;;;;;;5007471;28;20037;-78
2022/11/29 03:45:24;;;;;;;76.28;27.70;;;11.70;99.90;;;;;;5008743;28;20048;-78
2022/11/29 03:47:56;;;;;;;82.10;27.65;;;11.70;99.90;;;;;;5006431;28;20050;-78
2022/11/29 03:50:26;;;;;;;92.72;27.48;;;11.60;99.90;;;;;;5004557;28;20064;-79
2022/11/29 03:52:56;;;;;;;122.88;30.73;;;11.60;99.90;;;;;;5005705;28;20709;-78
2022/11/29 03:55:33;;;;;;;85.65;27.33;;;11.60;99.90;;;;;;5007119;28;20073;-78
2022/11/29 03:58:17;;;;;;;98.95;29.02;;;11.60;99.90;;;;;;5017887;28;20125;-78
2022/11/29 04:00:53;;;;;;;101.82;28.58;;;11.60;99.90;;;;;;5014415;28;20042;-78
2022/11/29 04:03:40;;;;;;;96.82;29.58;;;11.60;99.90;;;;;;5006883;28;20397;-79
2022/11/29 04:06:19;;;;;;;97.80;29.20;;;11.60;99.90;;;;;;5008093;28;20100;-78
2022/11/29 04:09:07;;;;;;;80.38;26.60;;;11.60;99.90;;;;;;5007346;28;20129;-78
2022/11/29 04:12:04;;;;;;;100.45;29.25;;;11.60;99.90;;;;;;4989987;28;20135;-78
2022/11/29 04:14:34;;;;;;;79.15;25.50;;;11.60;99.90;;;;;;4979432;28;20077;-78
2022/11/29 04:17:27;;;;;;;75.45;24.08;;;11.60;99.90;;;;;;5008307;28;20052;-78
2022/11/29 04:20:10;;;;;;;75.45;24.15;;;11.60;99.90;;;;;;4988940;28;20137;-78
2022/11/29 04:23:08;;;;;;;72.95;24.30;;;11.60;99.90;;;;;;5008253;28;20053;-78
2022/11/29 04:26:03;;;;;;;73.20;25.13;;;11.60;99.90;;;;;;5008252;28;20096;-78
2022/11/29 04:29:03;;;;;;;86.10;25.27;;;11.60;99.90;;;;;;4994523;28;20057;-78
2022/11/29 04:31:38;;;;;;;81.03;25.20;;;11.50;99.90;;;;;;4990408;28;20038;-78
2022/11/29 04:34:44;;;;;;;69.75;24.25;;;11.50;99.90;;;;;;4985545;28;20160;-78
2022/11/29 04:37:22;;;;;;;81.10;24.73;;;11.50;99.90;;;;;;5005356;28;20588;-78
2022/11/29 04:40:18;;;;;;;64.82;23.85;;;11.50;99.90;;;;;;4997410;28;20065;-78
2022/11/29 04:43:11;;;;;;;66.82;24.48;;;11.50;99.90;;;;;;5009140;28;20112;-78
2022/11/29 04:46:08;;;;;;;68.63;22.55;;;11.50;99.90;;;;;;5015554;28;20045;-78
2022/11/29 04:48:59;;;;;;;64.65;23.25;;;11.50;99.90;;;;;;5013259;28;20121;-78
2022/11/29 04:51:36;;;;;;;56.90;22.02;;;11.50;99.90;;;;;;4979475;28;20136;-78
2022/11/29 04:54:08;;;;;;;76.80;24.65;;;11.50;99.90;;;;;;5005941;28;20096;-78
2022/11/29 04:56:40;;;;;;;66.13;23.45;;;11.50;99.90;;;;;;5010285;28;20064;-78
2022/11/29 04:59:14;;;;;;;66.00;22.85;;;11.50;99.90;;;;;;4999497;28;20338;-78
2022/11/29 05:01:50;;;;;;;68.43;24.00;;;11.50;99.90;;;;;;5008990;28;20521;-78
2022/11/29 05:04:22;;;;;;;67.18;22.48;;;11.50;99.90;;;;;;5011458;28;20497;-78
2022/11/29 05:06:50;;;;;;;;;;;11.50;99.90;;;;;;5031189;28;20640;-78
2022/11/29 05:09:23;;;;;;;63.00;22.02;;;11.50;99.90;;;;;;5010294;28;19932;-78
2022/11/29 05:11:58;;;;;;;62.75;21.95;;;11.50;99.90;;;;;;5011188;28;20080;-78
2022/11/29 05:14:35;;;;;;;66.97;21.33;;;11.50;99.90;;;;;;5008549;28;20118;-78
2022/11/29 05:17:20;;;;;;;60.25;21.80;;;11.50;99.90;;;;;;5012019;28;20111;-78
2022/11/29 05:19:55;;;;;;;58.78;20.17;;;11.50;99.90;;;;;;5017781;28;20056;-79
2022/11/29 05:22:32;;;;;;;60.20;20.50;;;11.50;99.90;;;;;;5010369;28;20073;-79
2022/11/29 05:25:05;;;;;;;57.03;20.40;;;11.50;99.90;;;;;;5011084;28;20054;-78
2022/11/29 05:27:41;;;;;;;50.65;19.42;;;11.50;99.90;;;;;;5004106;28;20681;-77
2022/11/29 05:30:13;;;;;;;52.70;19.17;;;11.50;99.90;;;;;;5013491;28;20704;-77
2022/11/29 05:32:50;;;;;;;54.30;19.58;;;11.40;99.90;;;;;;5014723;28;20050;-77
2022/11/29 05:35:46;;;;;;;50.55;18.70;;;11.40;99.90;;;;;;5017126;28;20421;-77
2022/11/29 05:38:27;;;;;;;50.20;19.67;;;11.40;99.90;;;;;;5001838;28;20043;-78
2022/11/29 05:41:03;;;;;;;53.67;20.02;;;11.40;99.90;;;;;;5010731;28;20107;-77
2022/11/29 05:43:50;;;;;;;52.80;18.63;;;11.40;99.90;;;;;;5011462;28;20486;-78
2022/11/29 05:46:22;;;;;;;49.42;18.13;;;11.40;99.90;;;;;;5005711;28;20050;-79
2022/11/29 05:48:57;;;;;;;58.30;18.70;;;11.40;99.90;;;;;;5008730;28;20466;-76
2022/11/29 05:51:33;;;;;;;55.75;19.30;;;11.40;99.90;;;;;;5002936;28;20887;-76
2022/11/29 05:54:11;;;;;;;51.22;18.35;;;11.40;99.90;;;;;;5016494;28;20052;-76
2022/11/29 05:56:46;;;;;;;45.22;17.15;;;11.30;99.90;;;;;;5004838;28;20046;-77
2022/11/29 05:59:15;;;;;;;53.03;19.25;;;11.30;99.90;;;;;;5003547;28;20050;-76
2022/11/29 06:01:50;;;;;;;51.60;17.85;;;11.30;99.90;;;;;;5008717;28;20041;-76
2022/11/29 06:04:21;;;;;;;48.75;19.23;;;11.30;99.90;;;;;;5008948;28;20120;-76
2022/11/29 06:06:54;;;;;;;52.75;19.10;;;11.30;99.90;;;;;;5009311;28;20061;-76
2022/11/29 06:09:27;;;;;;;47.22;17.25;;;11.30;99.90;;;;;;5008885;28;20042;-76
2022/11/29 06:11:57;;;;;;;50.33;18.35;;;11.30;99.90;;;;;;5018511;28;20042;-76
2022/11/29 06:14:48;;;;;;;44.28;18.10;;;11.30;99.90;;;;;;5010448;28;20050;-78
2022/11/29 06:17:45;;;;;;;50.30;17.27;;;11.30;99.90;;;;;;4989088;28;20520;-76
2022/11/29 06:20:31;;;;;;;44.70;17.48;;;11.30;99.90;;;;;;4991979;28;20132;-77
2022/11/29 06:23:22;;;;;;;50.55;18.60;;;11.30;99.90;;;;;;5005132;28;20533;-77
2022/11/29 06:25:59;;;;;;;46.75;19.20;;;11.30;99.90;;;;;;4969102;28;20081;-77
2022/11/29 06:28:37;;;;;;;53.45;18.50;;;11.30;99.90;;;;;;5011765;28;20509;-79
2022/11/29 06:31:11;;;;;;;47.58;17.77;;;11.30;99.90;;;;;;5007302;28;20041;-79
2022/11/29 06:33:45;;;;;;;44.45;17.00;;;11.30;99.90;;;;;;4999230;28;20072;-78
2022/11/29 06:36:16;;;;;;;55.30;18.70;;;11.30;99.90;;;;;;4989727;28;20050;-78
2022/11/29 06:38:44;;;;;;;;;;;11.30;99.90;;;;;;5007578;28;20052;-78
2022/11/29 06:41:17;;;;;;;51.65;17.95;;;11.30;99.90;;;;;;5004748;28;19960;-79
2022/11/29 06:43:44;;;;;;;58.45;18.98;;;11.30;99.90;;;;;;5010020;28;20042;-80
2022/11/29 06:46:15;;;;;;;52.30;16.90;;;11.30;99.90;;;;;;5000610;28;20065;-82
2022/11/29 06:48:51;;;;;;;49.63;17.88;;;11.30;99.90;;;;;;5010157;28;20104;-82
2022/11/29 06:51:23;;;;;;;61.72;18.52;;;11.30;99.90;;;;;;4995664;28;20105;-81
2022/11/29 06:53:54;;;;;;;47.33;18.02;;;11.30;99.90;;;;;;4999763;28;20145;-79
2022/11/29 06:56:26;;;;;;;45.13;15.40;;;11.30;99.90;;;;;;5008466;28;20042;-78
2022/11/29 06:59:00;;;;;;;46.22;17.13;;;11.30;99.90;;;;;;4999335;28;20046;-79
2022/11/29 07:01:33;;;;;;;52.45;18.60;;;11.20;99.90;;;;;;5004828;28;20490;-79
2022/11/29 07:04:15;;;;;;;62.92;19.92;;;11.30;99.90;;;;;;5008723;28;20137;-80
2022/11/29 07:06:42;;;;;;;55.30;19.25;;;11.20;99.90;;;;;;4992821;28;20038;-80
2022/11/29 07:09:14;;;;;;;56.95;17.70;;;11.30;99.90;;;;;;5000430;28;20046;-80
2022/11/29 07:11:42;;;;;;;58.33;20.00;;;11.30;99.90;;;;;;5003478;28;20053;-80
2022/11/29 07:14:09;;;;;;;53.45;19.10;;;11.30;99.90;;;;;;5009026;28;20579;-80
2022/11/29 07:16:43;;;;;;;47.38;18.25;;;11.20;99.90;;;;;;5014837;28;20125;-80
2022/11/29 07:19:19;;;;;;;56.65;18.63;;;11.30;99.90;;;;;;5002458;28;20048;-80
2022/11/29 07:21:55;;;;;;;65.22;20.25;;;11.30;99.90;;;;;;4988020;28;20124;-80
2022/11/29 07:24:34;;;;;;;68.28;19.38;;;11.30;99.90;;;;;;4995447;28;20045;-80
2022/11/29 07:27:05;;;;;;;55.40;19.42;;;11.30;99.90;;;;;;5002581;28;20581;-80
2022/11/29 07:29:34;;;;;;;;;;;11.20;99.90;;;;;;5006744;28;20057;-80
2022/11/29 07:32:07;;;;;;;55.97;17.92;;;11.20;99.90;;;;;;5005738;28;19937;-80
2022/11/29 07:34:40;;;;;;;60.67;19.05;;;11.20;99.90;;;;;;4999588;28;20121;-77
2022/11/29 07:37:14;;;;;;;52.22;19.33;;;11.20;99.90;;;;;;4993718;28;20514;-77
2022/11/29 07:39:45;;;;;;;58.22;19.80;;;11.20;99.90;;;;;;5002620;28;20096;-77
2022/11/29 07:42:18;;;;;;;55.58;20.25;;;11.20;99.90;;;;;;5021927;23;20024;-88
2022/11/29 07:44:53;;;;;;;56.42;19.63;;;11.20;99.90;;;;;;4990330;28;20078;-87
2022/11/29 07:47:21;;;;;;;56.88;19.50;;;11.20;99.90;;;;;;4998702;28;20120;-78
2022/11/29 07:49:50;;;;;;;68.47;21.83;;;11.20;99.90;;;;;;4994674;28;20045;-78
2022/11/29 07:52:19;;;;;;;71.90;21.83;;;11.20;99.90;;;;;;4984918;28;20052;-77
2022/11/29 07:54:46;;;;;;;53.65;21.73;;;11.20;99.90;;;;;;4988953;28;20105;-80
2022/11/29 07:57:13;;;;;;;57.47;20.75;;;11.20;99.90;;;;;;4986592;28;20767;-80
2022/11/29 08:00:07;;;;;;;52.42;19.75;;;11.20;99.90;;;;;;4986103;28;20113;-77
2022/11/29 08:02:40;;;;;;;55.08;19.80;;;11.10;99.90;;;;;;4984799;28;20582;-80
2022/11/29 08:05:11;;;;;;;52.95;20.10;;;11.20;99.90;;;;;;4991701;28;20117;-80
2022/11/29 08:07:39;;;;;;;53.90;20.75;;;11.10;99.90;;;;;;4992626;28;20046;-80
2022/11/29 08:10:08;;;;;;;60.90;21.73;;;11.10;99.90;;;;;;4990226;28;20128;-80
2022/11/29 08:12:35;;;;;;;57.15;20.48;;;11.10;99.90;;;;;;4992692;28;20129;-80
2022/11/29 08:15:03;;;;;;;61.20;23.27;;;11.10;99.90;;;;;;4990408;28;20096;-80
2022/11/29 08:17:30;;;;;;;54.70;21.23;;;11.10;99.90;;;;;;4992744;28;20137;-81
2022/11/29 08:19:57;;;;;;;56.60;21.05;;;11.10;99.90;;;;;;4989123;28;20140;-80
2022/11/29 08:22:25;;;;;;;56.17;20.30;;;11.10;99.90;;;;;;4992164;28;20046;-81
2022/11/29 08:24:52;;;;;;;57.28;20.52;;;11.10;99.90;;;;;;4993052;28;20042;-77
2022/11/29 08:27:19;;;;;;;65.32;21.10;;;11.10;99.90;;;;;;4992707;28;20058;-77
2022/11/29 08:29:46;;;;;;;65.00;22.30;;;11.10;99.90;;;;;;4987755;28;20057;-79
2022/11/29 08:32:13;;;;;;;58.00;21.58;;;11.00;99.90;;;;;;4992779;28;20482;-78
2022/11/29 08:34:40;;;;;;;67.90;21.17;;;11.00;99.90;;;;;;4991097;28;20121;-79
2022/11/29 08:37:07;;;;;;;58.10;21.13;;;11.00;99.90;;;;;;4992562;28;20046;-79
2022/11/29 08:39:35;;;;;;;56.08;21.45;;;11.00;99.90;;;;;;4989016;28;20046;-79
2022/11/29 08:42:02;;;;;;;55.45;20.17;;;11.00;99.90;;;;;;4986942;28;20539;-79
2022/11/29 08:44:29;;;;;;;66.43;22.75;;;11.00;99.90;;;;;;5009045;28;20050;-79
2022/11/29 08:55:08;;;;;;;68.50;21.63;;;11.10;99.90;;;;;;4984765;28;20038;-79
2022/11/29 08:57:35;;;;;;;66.22;22.00;;;11.10;99.90;;;;;;4993317;28;20046;-79
2022/11/29 09:00:03;;;;;;;63.15;23.52;;;11.10;99.90;;;;;;4987842;28;20577;-79
2022/11/29 09:02:30;;;;;;;66.43;22.55;;;11.10;99.90;;;;;;4994462;28;20049;-77
2022/11/29 09:04:57;;;;;;;59.97;22.15;;;11.20;99.90;;;;;;4980504;28;20133;-77
2022/11/29 09:07:25;;;;;;;67.78;23.08;;;11.10;99.90;;;;;;4989951;28;20096;-77
2022/11/29 09:09:52;;;;;;;69.03;23.50;;;11.10;99.90;;;;;;4980501;28;20046;-77
2022/11/29 09:12:20;;;;;;;68.68;23.98;;;11.10;99.90;;;;;;4995298;28;20054;-78
2022/11/29 09:14:47;;;;;;;74.13;25.13;;;11.10;99.90;;;;;;4990899;28;20126;-77
2022/11/29 09:17:14;;;;;;;71.63;25.30;;;11.10;99.90;;;;;;4993527;28;20566;-77
2022/11/29 09:19:41;;;;;;;71.18;27.15;;;11.10;99.90;;;;;;4991273;28;20046;-78
2022/11/29 09:22:08;;;;;;;64.65;24.35;;;11.20;99.90;;;;;;4991750;28;20047;-78
2022/11/29 09:24:35;;;;;;;72.55;25.42;;;11.20;99.90;;;;;;4988387;28;20046;-78
2022/11/29 09:27:02;;;;;;;63.22;24.20;;;11.20;99.90;;;;;;4990510;28;20046;-78
2022/11/29 09:29:31;;;;;;;62.72;23.50;;;11.20;99.90;;;;;;4974305;28;20188;-78
2022/11/29 09:32:00;;;;;;;64.07;22.02;;;11.20;99.90;;;;;;4990297;28;20042;-78
2022/11/29 09:34:27;;;;;;;54.38;19.38;;;11.20;99.90;;;;;;4990143;28;20053;-78
2022/11/29 09:36:54;;;;;;;55.92;19.45;;;11.30;99.90;;;;;;4989822;28;20498;-78
2022/11/29 09:39:22;;;;;;;64.63;19.58;;;11.30;99.90;;;;;;4991309;28;20121;-78
2022/11/29 09:42:02;;;;;;;57.03;19.05;;;11.30;99.90;;;;;;4991893;28;20045;-78
2022/11/29 09:44:38;;;;;;;55.05;19.17;;;11.30;99.90;;;;;;4992996;28;20123;-78
2022/11/29 09:47:18;;;;;;;49.25;21.02;;;11.30;99.90;;;;;;4976514;28;20073;-78
2022/11/29 09:49:56;;;;;;;61.28;20.77;;;11.30;99.90;;;;;;4992379;28;20462;-78
2022/11/29 09:52:34;;;;;;;60.50;20.25;;;11.30;99.90;;;;;;4988420;28;20800;-78
2022/11/29 09:55:10;;;;;;;63.70;20.98;;;11.30;99.90;;;;;;4990651;28;20057;-78
2022/11/29 09:57:37;;;;;;;60.70;20.75;;;11.40;99.90;;;;;;4973302;28;20525;-78
2022/11/29 10:00:13;;;;;;;59.45;21.45;;;11.40;99.90;;;;;;4990307;28;20046;-78
2022/11/29 10:02:46;;;;;;;66.82;20.90;;;11.40;99.90;;;;;;4982100;28;20066;-78
2022/11/29 10:05:17;;;;;;;57.10;20.33;;;11.40;99.90;;;;;;4987639;28;20486;-78
2022/11/29 10:07:45;;;;;;;;;;;11.40;99.90;;;;;;4990440;28;20046;-78
2022/11/29 10:10:16;;;;;;;63.58;20.98;;;11.40;99.90;;;;;;4969395;28;19926;-78
2022/11/29 10:12:47;;;;;;;63.70;20.40;;;11.40;99.90;;;;;;4990909;28;20050;-78
2022/11/29 10:15:18;;;;;;;75.93;25.20;;;11.40;99.90;;;;;;4993161;28;20038;-78
2022/11/29 10:17:49;;;;;;;82.72;24.23;;;11.40;99.90;;;;;;4989006;28;20505;-78
2022/11/29 10:20:19;;;;;;;74.80;25.17;;;11.40;99.90;;;;;;4987059;28;20473;-78
2022/11/29 10:22:52;;;;;;;80.47;27.83;;;11.40;99.90;;;;;;4979342;28;20125;-78
2022/11/29 10:25:24;;;;;;;93.47;30.20;;;11.50;99.90;;;;;;4989600;28;20054;-78
2022/11/29 10:27:51;;;;;;;102.25;32.90;;;11.50;99.90;;;;;;4989038;28;20086;-78
2022/11/29 10:30:20;;;;;;;120.78;34.92;;;11.50;99.90;;;;;;4967656;28;20137;-78
2022/11/29 10:32:52;;;;;;;114.60;36.90;;;11.50;99.90;;;;;;4993544;28;20050;-78
2022/11/29 10:35:20;;;;;;;118.63;36.30;;;11.50;99.90;;;;;;4991745;28;20155;-77
2022/11/29 10:37:47;;;;;;;128.10;38.40;;;11.50;99.90;;;;;;4982744;28;20046;-78
2022/11/29 10:40:17;;;;;;;115.82;38.92;;;11.50;99.90;;;;;;4990846;28;20042;-78
2022/11/29 10:42:52;;;;;;;132.98;40.58;;;11.50;99.90;;;;;;4993873;28;20446;-78
2022/11/29 10:45:29;;;;;;;128.43;40.00;;;11.50;99.90;;;;;;4988637;28;20046;-78
2022/11/29 10:47:58;;;;;;;131.98;40.75;;;11.50;99.90;;;;;;4986464;28;20046;-78
2022/11/29 10:50:28;;;;;;;122.28;39.25;;;11.40;99.90;;;;;;4985835;28;20128;-78
2022/11/29 10:52:58;;;;;;;139.10;39.55;;;11.40;99.90;;;;;;4992415;28;20049;-78
2022/11/29 10:55:26;;;;;;;135.82;40.58;;;11.50;99.90;;;;;;4983239;28;20157;-78
2022/11/29 10:58:15;;;;;;;143.95;41.97;;;11.50;99.90;;;;;;4986384;28;20074;-78
2022/11/29 11:00:51;;;;;;;144.52;41.20;;;11.50;99.90;;;;;;4982277;28;20050;-78
2022/11/29 11:03:33;;;;;;;156.02;41.97;;;11.50;99.90;;;;;;4982663;28;20125;-76
2022/11/29 11:06:04;;;;;;;135.13;41.40;;;11.50;99.90;;;;;;4984363;28;20064;-80
2022/11/29 11:08:32;;;;;;;141.13;41.13;;;11.50;99.90;;;;;;4980052;28;20136;-80
2022/11/29 11:11:00;;;;;;;139.15;40.45;;;11.50;99.90;;;;;;4983297;28;20050;-82
2022/11/29 11:13:29;;;;;;;149.60;41.20;;;11.50;99.90;;;;;;4987086;28;20049;-83
2022/11/29 11:15:59;;;;;;;144.57;41.60;;;11.50;99.90;;;;;;4988798;28;20506;-83
2022/11/29 11:18:29;;;;;;;129.25;38.72;;;11.50;99.90;;;;;;4986444;28;20042;-83
2022/11/29 11:20:58;;;;;;;142.20;41.10;;;11.50;99.90;;;;;;4999444;28;20462;-82
2022/11/29 11:23:28;;;;;;;145.38;39.75;;;11.50;99.90;;;;;;4985297;28;20035;-83
2022/11/29 11:25:59;;;;;;;134.00;40.60;;;11.50;99.90;;;;;;4987782;28;20057;-83
2022/11/29 11:28:27;;;;;;;;;;;11.50;99.90;;;;;;4989005;28;20137;-83
2022/11/29 11:30:57;;;;;;;132.18;39.28;;;11.50;99.90;;;;;;4987955;28;19925;-83
2022/11/29 11:33:27;;;;;;;145.05;42.33;;;11.50;99.90;;;;;;4988095;28;20085;-83
2022/11/29 11:36:10;;;;;;;144.82;42.55;;;11.50;99.90;;;;;;4987889;28;20046;-82
2022/11/29 11:38:39;;;;;;;147.40;42.13;;;11.50;99.90;;;;;;4987893;28;20097;-84
2022/11/29 11:41:22;;;;;;;141.35;42.22;;;11.50;99.90;;;;;;4987299;28;20066;-80
2022/11/29 11:43:52;;;;;;;146.80;44.67;;;11.50;99.90;;;;;;4970784;28;20061;-81
2022/11/29 11:46:20;;;;;;;149.82;44.90;;;11.50;99.90;;;;;;4988744;28;20096;-82
2022/11/29 11:48:47;;;;;;;154.60;44.63;;;11.50;99.90;;;;;;4971824;28;20137;-80
2022/11/29 11:51:25;;;;;;;164.13;46.53;;;11.50;99.90;;;;;;4986594;28;20467;-78
2022/11/29 11:53:55;;;;;;;147.95;44.30;;;11.50;99.90;;;;;;4988382;28;20054;-78
2022/11/29 11:56:22;;;;;;;154.45;45.78;;;11.50;99.90;;;;;;4970960;28;20487;-80
2022/11/29 11:58:52;;;;;;;147.30;42.40;;;11.50;99.90;;;;;;4986796;28;20133;-81
2022/11/29 12:01:27;;;;;;;146.35;44.90;;;11.50;99.90;;;;;;4988054;28;20157;-80
2022/11/29 12:04:01;;;;;;;136.00;43.70;;;11.50;99.90;;;;;;4983572;28;20575;-78
2022/11/29 12:06:42;;;;;;;138.93;43.72;;;11.50;99.90;;;;;;4987407;28;20321;-77
2022/11/29 12:09:18;;;;;;;141.00;46.20;;;11.50;99.90;;;;;;4984251;28;20120;-83
2022/11/29 12:11:51;;;;;;;135.15;44.17;;;11.50;99.90;;;;;;4972898;28;20113;-84
2022/11/29 12:14:31;;;;;;;130.80;43.78;;;11.50;99.90;;;;;;4987736;28;20149;-82
2022/11/29 12:17:05;;;;;;;155.40;48.33;;;11.50;99.90;;;;;;4988111;28;20074;-82
2022/11/29 12:19:35;;;;;;;149.18;45.83;;;11.50;99.90;;;;;;4981158;28;20510;-83
2022/11/29 12:22:07;;;;;;;153.43;48.72;;;11.50;99.90;;;;;;4988085;28;20038;-81
2022/11/29 12:24:39;;;;;;;139.20;46.35;;;11.50;99.90;;;;;;4987404;28;20387;-81
2022/11/29 12:27:09;;;;;;;160.85;46.25;;;11.50;99.90;;;;;;4987378;28;20417;-80
2022/11/29 12:29:36;;;;;;;162.97;49.90;;;11.50;99.90;;;;;;4987170;28;20092;-81
2022/11/29 12:32:14;;;;;;;163.73;49.70;;;11.50;99.90;;;;;;4988439;28;20046;-80
2022/11/29 12:34:51;;;;;;;148.05;47.65;;;11.50;99.90;;;;;;4987464;28;20050;-80
2022/11/29 12:37:21;;;;;;;178.48;51.95;;;11.50;99.90;;;;;;4987775;28;20050;-81
2022/11/29 12:39:55;;;;;;;162.93;50.17;;;11.50;99.90;;;;;;4986669;28;20565;-80
2022/11/29 12:42:34;;;;;;;178.02;52.78;;;11.50;99.90;;;;;;4987759;28;20039;-80
2022/11/29 12:45:11;;;;;;;160.55;49.50;;;11.50;99.90;;;;;;4987396;28;20050;-81
2022/11/29 12:47:46;;;;;;;246.82;58.55;;;11.50;99.90;;;;;;4985251;28;20510;-81
2022/11/29 12:50:28;;;;;;;232.38;60.40;;;11.50;99.90;;;;;;4980696;28;20578;-81
2022/11/29 12:53:06;;;;;;;171.35;55.03;;;11.50;99.90;;;;;;4990036;28;20054;-81
2022/11/29 12:55:42;;;;;;;179.65;54.92;;;11.50;99.90;;;;;;4991811;28;20038;-81
2022/11/29 12:58:16;;;;;;;196.80;59.38;;;11.50;99.90;;;;;;4991459;28;20046;-81
2022/11/29 13:00:53;;;;;;;194.18;58.30;;;11.50;99.90;;;;;;4988431;28;20046;-81
2022/11/29 13:03:27;;;;;;;175.80;55.13;;;11.50;99.90;;;;;;4990935;28;20100;-81
2022/11/29 13:06:03;;;;;;;173.43;54.33;;;11.50;99.90;;;;;;4991123;28;20046;-81
2022/11/29 13:08:57;;;;;;;180.60;56.53;;;11.50;99.90;;;;;;4985672;28;20061;-81